createdAt,value
2019-04-29T00:00:36.000Z,6.60
2019-04-29T00:01:35.973Z,6.20
2019-04-29T00:02:35.943Z,6.60
2019-04-29T00:03:35.912Z,6.50
2019-04-29T00:04:35.897Z,6.30
2019-04-29T00:05:35.855Z,6.70
2019-04-29T00:06:35.830Z,6.30
2019-04-29T00:07:35.794Z,6.70
2019-04-29T00:08:35.765Z,6.70
2019-04-29T00:09:35.749Z,6.80
2019-04-29T00:10:35.713Z,6.50
2019-04-29T00:11:35.677Z,6.40
2019-04-29T00:12:35.650Z,6.50
2019-04-29T00:13:35.622Z,7.00
2019-04-29T00:14:35.589Z,6.90
2019-04-29T00:15:35.558Z,6.60
2019-04-29T00:16:35.604Z,6.10
2019-04-29T00:17:35.501Z,6.20
2019-04-29T00:18:35.471Z,6.00
2019-04-29T00:19:36.290Z,6.80
2019-04-29T00:20:35.411Z,6.70
2019-04-29T00:21:35.385Z,6.10
2019-04-29T00:22:35.357Z,6.70
2019-04-29T00:23:35.323Z,6.20
2019-04-29T00:24:35.296Z,6.30
2019-04-29T00:25:35.265Z,6.70
2019-04-29T00:26:35.234Z,6.40
2019-04-29T00:27:35.206Z,6.70
2019-04-29T00:28:35.175Z,5.90
2019-04-29T00:29:35.146Z,6.20
2019-04-29T00:30:35.122Z,6.20
2019-04-29T00:31:35.087Z,6.50
2019-04-29T00:32:35.059Z,6.70
2019-04-29T00:33:35.030Z,6.80
2019-04-29T00:34:35.001Z,6.70
2019-04-29T00:35:34.970Z,6.50
2019-04-29T00:36:34.941Z,6.50
2019-04-29T00:37:34.913Z,6.80
2019-04-29T00:38:34.882Z,7.00
2019-04-29T00:39:34.852Z,7.40
2019-04-29T00:40:34.826Z,6.50
2019-04-29T00:41:34.793Z,7.40
2019-04-29T00:42:34.765Z,6.90
2019-04-29T00:43:34.738Z,7.70
2019-04-29T00:44:34.705Z,7.10
2019-04-29T00:45:34.683Z,7.30
2019-04-29T00:46:34.648Z,7.50
2019-04-29T00:47:34.618Z,8.20
2019-04-29T00:48:34.587Z,7.80
2019-04-29T00:49:34.558Z,7.90
2019-04-29T00:50:34.527Z,8.20
2019-04-29T00:51:34.543Z,8.30
2019-04-29T00:52:34.467Z,8.10
2019-04-29T00:53:34.445Z,7.90
2019-04-29T00:54:34.418Z,8.70
2019-04-29T00:55:34.381Z,8.30
2019-04-29T00:56:34.354Z,8.00
2019-04-29T00:57:34.324Z,8.50
2019-04-29T00:58:34.291Z,8.90
2019-04-29T00:59:34.262Z,9.00
2019-04-29T01:00:34.232Z,8.20
2019-04-29T01:01:34.203Z,8.40
2019-04-29T01:02:34.174Z,8.50
2019-04-29T01:03:34.144Z,7.90
2019-04-29T01:04:34.115Z,8.50
2019-04-29T01:05:34.088Z,8.20
2019-04-29T01:06:34.059Z,8.40
2019-04-29T01:07:34.026Z,7.70
2019-04-29T01:08:33.997Z,8.70
2019-04-29T01:09:33.967Z,7.50
2019-04-29T01:10:33.942Z,8.60
2019-04-29T01:11:33.912Z,8.60
2019-04-29T01:12:33.880Z,8.10
2019-04-29T01:13:33.850Z,8.50
2019-04-29T01:14:33.821Z,8.30
2019-04-29T01:15:33.793Z,7.90
2019-04-29T01:16:33.763Z,8.20
2019-04-29T01:17:33.731Z,8.00
2019-04-29T01:18:33.703Z,7.40
2019-04-29T01:19:33.689Z,7.50
2019-04-29T01:20:33.659Z,7.40
2019-04-29T01:21:33.615Z,8.10
2019-04-29T01:22:33.586Z,8.10
2019-04-29T01:23:33.555Z,7.70
2019-04-29T01:24:33.524Z,8.00
2019-04-29T01:25:33.495Z,7.90
2019-04-29T01:26:33.468Z,8.10
2019-04-29T01:27:33.439Z,7.70
2019-04-29T01:28:33.409Z,8.00
2019-04-29T01:29:33.386Z,7.50
2019-04-29T01:30:33.351Z,7.90
2019-04-29T01:31:33.319Z,8.40
2019-04-29T01:32:33.290Z,8.70
2019-04-29T01:33:33.275Z,8.40
2019-04-29T01:34:33.232Z,8.10
2019-04-29T01:35:33.202Z,8.20
2019-04-29T01:36:33.175Z,8.50
2019-04-29T01:37:33.143Z,8.50
2019-04-29T01:38:33.116Z,7.80
2019-04-29T01:39:33.084Z,8.80
2019-04-29T01:40:33.062Z,8.70
2019-04-29T01:41:33.026Z,7.80
2019-04-29T01:42:32.999Z,8.40
2019-04-29T01:43:32.967Z,8.50
2019-04-29T01:44:32.952Z,8.70
2019-04-29T01:45:32.908Z,8.80
2019-04-29T01:46:32.886Z,9.40
2019-04-29T01:47:32.852Z,10.10
2019-04-29T01:48:32.823Z,10.10
2019-04-29T01:49:32.797Z,11.80
2019-04-29T01:50:32.763Z,12.20
2019-04-29T01:51:32.742Z,14.10
2019-04-29T01:52:32.708Z,14.00
2019-04-29T01:53:32.673Z,14.70
2019-04-29T01:54:32.646Z,15.60
2019-04-29T01:55:32.614Z,16.30
2019-04-29T01:56:32.591Z,15.80
2019-04-29T01:57:32.556Z,18.10
2019-04-29T01:58:32.527Z,18.70
2019-04-29T01:59:32.499Z,19.90
2019-04-29T02:00:32.472Z,19.40
2019-04-29T02:01:32.440Z,20.00
2019-04-29T02:02:32.411Z,20.40
2019-04-29T02:03:32.381Z,21.20
2019-04-29T02:04:32.359Z,20.90
2019-04-29T02:05:32.324Z,20.50
2019-04-29T02:06:32.294Z,22.70
2019-04-29T02:07:32.275Z,21.40
2019-04-29T02:08:32.234Z,20.80
2019-04-29T02:09:32.209Z,21.60
2019-04-29T02:10:32.185Z,21.80
2019-04-29T02:11:32.146Z,20.20
2019-04-29T02:12:32.119Z,22.00
2019-04-29T02:13:32.090Z,21.70
2019-04-29T02:14:32.106Z,20.80
2019-04-29T02:15:32.032Z,21.80
2019-04-29T02:16:32.005Z,22.10
2019-04-29T02:17:31.973Z,20.40
2019-04-29T02:18:31.946Z,20.90
2019-04-29T02:19:31.913Z,19.70
2019-04-29T02:20:31.890Z,20.40
2019-04-29T02:21:31.860Z,20.30
2019-04-29T02:22:31.826Z,20.20
2019-04-29T02:23:31.797Z,19.80
2019-04-29T02:24:31.768Z,20.60
2019-04-29T02:25:31.738Z,21.10
2019-04-29T02:26:31.711Z,22.10
2019-04-29T02:27:31.684Z,21.90
2019-04-29T02:28:31.652Z,21.50
2019-04-29T02:29:31.624Z,21.60
2019-04-29T02:30:31.597Z,22.90
2019-04-29T02:31:31.564Z,22.50
2019-04-29T02:32:31.535Z,20.60
2019-04-29T02:33:31.504Z,21.90
2019-04-29T02:34:31.477Z,21.20
2019-04-29T02:35:31.452Z,21.40
2019-04-29T02:36:31.422Z,21.40
2019-04-29T02:37:31.388Z,20.90
2019-04-29T02:38:31.367Z,22.60
2019-04-29T02:39:31.331Z,22.40
2019-04-29T02:40:31.344Z,21.60
2019-04-29T02:41:31.274Z,21.50
2019-04-29T02:42:31.251Z,23.60
2019-04-29T02:43:31.215Z,21.50
2019-04-29T02:44:31.183Z,21.60
2019-04-29T02:45:31.154Z,22.10
2019-04-29T02:46:31.132Z,21.80
2019-04-29T02:47:31.100Z,21.40
2019-04-29T02:48:34.454Z,20.90
2019-04-29T02:49:31.038Z,19.90
2019-04-29T02:50:31.016Z,20.30
2019-04-29T02:51:30.982Z,20.00
2019-04-29T02:52:30.951Z,21.10
2019-04-29T02:53:30.920Z,20.60
2019-04-29T02:54:30.892Z,21.50
2019-04-29T02:55:30.862Z,20.40
2019-04-29T02:56:30.835Z,21.20
2019-04-29T02:57:30.849Z,21.40
2019-04-29T02:58:30.774Z,23.00
2019-04-29T02:59:30.744Z,19.90
2019-04-29T03:00:30.726Z,21.00
2019-04-29T03:01:30.686Z,20.80
2019-04-29T03:02:30.660Z,19.90
2019-04-29T03:03:30.626Z,20.90
2019-04-29T03:04:30.603Z,19.50
2019-04-29T03:05:30.572Z,19.40
2019-04-29T03:06:30.542Z,20.00
2019-04-29T03:07:30.518Z,18.80
2019-04-29T03:08:30.483Z,19.40
2019-04-29T03:09:30.457Z,18.60
2019-04-29T03:10:30.425Z,18.00
2019-04-29T03:11:30.395Z,19.30
2019-04-29T03:12:30.365Z,17.80
2019-04-29T03:13:30.343Z,17.50
2019-04-29T03:14:30.308Z,18.10
2019-04-29T03:15:30.279Z,18.10
2019-04-29T03:16:30.254Z,18.30
2019-04-29T03:17:30.234Z,18.20
2019-04-29T03:18:30.193Z,18.20
2019-04-29T03:19:30.167Z,17.70
2019-04-29T03:20:30.134Z,18.30
2019-04-29T03:21:30.103Z,17.70
2019-04-29T03:22:30.072Z,18.60
2019-04-29T03:23:30.049Z,17.60
2019-04-29T03:24:30.038Z,18.40
2019-04-29T03:25:29.984Z,18.20
2019-04-29T03:26:29.965Z,18.90
2019-04-29T03:27:29.931Z,16.00
2019-04-29T03:28:29.904Z,17.70
2019-04-29T03:29:29.868Z,19.00
2019-04-29T03:30:29.855Z,19.80
2019-04-29T03:31:29.822Z,18.00
2019-04-29T03:32:29.785Z,19.50
2019-04-29T03:33:29.752Z,18.60
2019-04-29T03:34:29.763Z,18.30
2019-04-29T03:35:29.705Z,19.90
2019-04-29T03:36:29.677Z,20.40
2019-04-29T03:37:29.634Z,19.60
2019-04-29T03:38:29.608Z,20.20
2019-04-29T03:39:29.578Z,20.10
2019-04-29T03:40:29.552Z,19.70
2019-04-29T03:41:29.521Z,19.60
2019-04-29T03:42:29.490Z,19.10
2019-04-29T03:43:29.462Z,19.20
2019-04-29T03:44:29.432Z,19.30
2019-04-29T03:45:29.405Z,18.90
2019-04-29T03:46:29.372Z,19.30
2019-04-29T03:47:29.342Z,18.80
2019-04-29T03:48:29.351Z,21.30
2019-04-29T03:49:29.287Z,20.00
2019-04-29T03:50:29.258Z,19.90
2019-04-29T03:51:29.231Z,19.50
2019-04-29T03:52:29.197Z,21.60
2019-04-29T03:53:29.171Z,20.70
2019-04-29T03:54:29.140Z,21.40
2019-04-29T03:55:38.863Z,20.60
2019-04-29T03:56:29.080Z,20.70
2019-04-29T03:57:29.050Z,21.50
2019-04-29T03:58:29.028Z,22.60
2019-04-29T03:59:28.994Z,23.90
2019-04-29T04:00:28.965Z,23.40
2019-04-29T04:01:28.939Z,21.50
2019-04-29T04:02:28.913Z,21.60
2019-04-29T04:03:28.875Z,23.10
2019-04-29T04:04:28.848Z,24.20
2019-04-29T04:05:28.823Z,22.50
2019-04-29T04:06:28.788Z,23.90
2019-04-29T04:07:28.758Z,23.20
2019-04-29T04:08:28.728Z,24.80
2019-04-29T04:09:28.717Z,24.40
2019-04-29T04:10:28.671Z,24.30
2019-04-29T04:11:28.642Z,24.40
2019-04-29T04:12:28.637Z,21.50
2019-04-29T04:13:28.591Z,25.90
2019-04-29T04:14:28.556Z,26.20
2019-04-29T04:15:28.525Z,26.80
2019-04-29T04:16:28.514Z,26.40
2019-04-29T04:17:28.468Z,27.50
2019-04-29T04:18:28.441Z,27.90
2019-04-29T04:19:28.416Z,27.40
2019-04-29T04:20:28.384Z,26.90
2019-04-29T04:21:28.352Z,27.90
2019-04-29T04:22:28.328Z,28.90
2019-04-29T04:23:28.291Z,27.60
2019-04-29T04:24:28.271Z,28.20
2019-04-29T04:25:28.233Z,25.60
2019-04-29T04:26:28.212Z,30.70
2019-04-29T04:27:28.180Z,28.90
2019-04-29T04:28:28.146Z,30.70
2019-04-29T04:29:28.120Z,31.20
2019-04-29T04:30:28.101Z,32.20
2019-04-29T04:31:28.058Z,31.30
2019-04-29T04:32:28.031Z,30.70
2019-04-29T04:33:27.997Z,32.50
2019-04-29T04:34:27.970Z,33.50
2019-04-29T04:35:27.951Z,30.60
2019-04-29T04:36:27.918Z,32.50
2019-04-29T04:37:27.882Z,33.60
2019-04-29T04:38:27.852Z,33.00
2019-04-29T04:39:27.829Z,30.10
2019-04-29T04:40:27.794Z,29.40
2019-04-29T04:41:27.766Z,33.00
2019-04-29T04:42:30.070Z,31.70
2019-04-29T04:43:27.711Z,32.30
2019-04-29T04:44:27.680Z,34.20
2019-04-29T04:45:27.649Z,34.70
2019-04-29T04:46:27.618Z,33.40
2019-04-29T04:47:27.586Z,33.80
2019-04-29T04:48:27.562Z,33.10
2019-04-29T04:49:27.529Z,33.60
2019-04-29T04:50:27.498Z,34.90
2019-04-29T04:51:27.469Z,34.90
2019-04-29T04:52:27.439Z,32.90
2019-04-29T04:53:27.410Z,35.90
2019-04-29T04:54:31.178Z,33.80
2019-04-29T04:55:27.351Z,34.30
2019-04-29T04:56:27.321Z,35.30
2019-04-29T04:57:27.292Z,34.40
2019-04-29T04:58:27.265Z,33.00
2019-04-29T04:59:27.234Z,33.40
2019-04-29T05:00:27.220Z,35.00
2019-04-29T05:01:27.184Z,34.60
2019-04-29T05:02:27.150Z,34.90
2019-04-29T05:03:27.122Z,36.10
2019-04-29T05:04:27.089Z,33.40
2019-04-29T05:05:27.059Z,32.60
2019-04-29T05:06:27.029Z,35.80
2019-04-29T05:07:27.017Z,34.80
2019-04-29T05:08:26.968Z,35.60
2019-04-29T05:09:26.953Z,37.00
2019-04-29T05:10:26.911Z,35.90
2019-04-29T05:11:26.884Z,32.00
2019-04-29T05:12:26.852Z,33.00
2019-04-29T05:13:28.239Z,36.30
2019-04-29T05:14:26.792Z,36.40
2019-04-29T05:15:26.764Z,35.70
2019-04-29T05:16:26.733Z,34.80
2019-04-29T05:17:26.705Z,36.10
2019-04-29T05:18:26.683Z,36.10
2019-04-29T05:19:26.648Z,36.70
2019-04-29T05:20:26.623Z,36.30
2019-04-29T05:21:26.588Z,32.60
2019-04-29T05:22:26.558Z,35.70
2019-04-29T05:23:26.529Z,35.00
2019-04-29T05:24:26.498Z,35.40
2019-04-29T05:25:26.469Z,34.50
2019-04-29T05:26:26.442Z,36.50
2019-04-29T05:27:26.413Z,35.40
2019-04-29T05:28:26.383Z,37.40
2019-04-29T05:29:28.706Z,35.40
2019-04-29T05:30:26.325Z,32.90
2019-04-29T05:31:26.295Z,35.40
2019-04-29T05:32:26.264Z,34.90
2019-04-29T05:33:26.237Z,36.20
2019-04-29T05:34:26.209Z,36.90
2019-04-29T05:35:26.511Z,36.20
2019-04-29T05:36:26.159Z,36.40
2019-04-29T05:37:26.121Z,34.90
2019-04-29T05:38:26.090Z,36.30
2019-04-29T05:39:26.062Z,36.40
2019-04-29T05:40:26.032Z,35.70
2019-04-29T05:41:26.002Z,36.90
2019-04-29T05:42:25.976Z,37.20
2019-04-29T05:43:26.989Z,37.10
2019-04-29T05:44:25.916Z,37.30
2019-04-29T05:45:25.887Z,37.60
2019-04-29T05:46:25.858Z,36.20
2019-04-29T05:47:25.835Z,37.90
2019-04-29T05:48:27.671Z,36.60
2019-04-29T05:49:25.770Z,37.60
2019-04-29T05:50:25.741Z,36.00
2019-04-29T05:51:27.261Z,36.30
2019-04-29T05:52:25.685Z,36.10
2019-04-29T05:53:25.653Z,36.70
2019-04-29T05:54:27.033Z,35.40
2019-04-29T05:55:25.596Z,36.20
2019-04-29T05:56:25.568Z,36.00
2019-04-29T05:57:26.987Z,35.30
2019-04-29T05:58:25.511Z,35.20
2019-04-29T05:59:25.480Z,37.50
2019-04-29T06:00:25.450Z,38.90
2019-04-29T06:01:25.426Z,37.40
2019-04-29T06:02:33.544Z,36.90
2019-04-29T06:03:25.363Z,37.20
2019-04-29T06:04:28.434Z,38.10
2019-04-29T06:05:25.307Z,38.50
2019-04-29T06:06:25.282Z,39.50
2019-04-29T06:07:26.937Z,38.50
2019-04-29T06:08:25.218Z,38.60
2019-04-29T06:09:25.190Z,38.50
2019-04-29T06:10:25.162Z,39.60
2019-04-29T06:11:25.131Z,40.40
2019-04-29T06:12:25.104Z,40.60
2019-04-29T06:13:25.075Z,38.60
2019-04-29T06:14:25.048Z,39.80
2019-04-29T06:15:25.025Z,40.40
2019-04-29T06:16:24.986Z,39.60
2019-04-29T06:17:24.964Z,41.00
2019-04-29T06:18:24.946Z,38.30
2019-04-29T06:19:24.899Z,38.40
2019-04-29T06:20:24.871Z,39.10
2019-04-29T06:21:24.842Z,41.20
2019-04-29T06:22:24.812Z,38.90
2019-04-29T06:23:24.787Z,40.10
2019-04-29T06:24:24.754Z,38.80
2019-04-29T06:25:24.735Z,40.00
2019-04-29T06:26:24.699Z,40.70
2019-04-29T06:27:24.670Z,40.60
2019-04-29T06:28:26.543Z,41.00
2019-04-29T06:29:24.613Z,41.90
2019-04-29T06:30:24.580Z,40.50
2019-04-29T06:31:24.553Z,42.10
2019-04-29T06:32:25.286Z,41.60
2019-04-29T06:33:29.067Z,40.90
2019-04-29T06:34:24.465Z,41.80
2019-04-29T06:35:24.443Z,43.60
2019-04-29T06:36:24.406Z,42.70
2019-04-29T06:37:24.380Z,43.50
2019-04-29T06:38:24.348Z,43.20
2019-04-29T06:39:24.319Z,43.30
2019-04-29T06:40:24.290Z,41.80
2019-04-29T06:41:24.264Z,43.60
2019-04-29T06:42:24.236Z,44.30
2019-04-29T06:43:24.620Z,42.50
2019-04-29T06:44:24.176Z,44.20
2019-04-29T06:45:24.154Z,43.30
2019-04-29T06:46:24.123Z,40.90
2019-04-29T06:47:24.088Z,44.50
2019-04-29T06:48:24.060Z,44.00
2019-04-29T06:49:24.032Z,43.40
2019-04-29T06:50:24.002Z,43.00
2019-04-29T06:51:23.972Z,43.70
2019-04-29T06:52:23.947Z,42.20
2019-04-29T06:53:23.914Z,42.60
2019-04-29T06:54:23.886Z,43.10
2019-04-29T06:55:23.856Z,42.60
2019-04-29T06:56:23.829Z,43.10
2019-04-29T06:57:23.799Z,43.20
2019-04-29T06:58:23.771Z,40.90
2019-04-29T06:59:23.748Z,42.90
2019-04-29T07:00:24.055Z,42.40
2019-04-29T07:01:23.683Z,43.50
2019-04-29T07:02:23.655Z,43.00
2019-04-29T07:03:25.638Z,41.70
2019-04-29T07:04:23.597Z,44.90
2019-04-29T07:05:23.568Z,44.30
2019-04-29T07:06:23.538Z,44.20
2019-04-29T07:07:23.513Z,43.30
2019-04-29T07:08:23.480Z,43.00
2019-04-29T07:09:23.451Z,42.80
2019-04-29T07:10:26.949Z,40.70
2019-04-29T07:11:23.490Z,40.20
2019-04-29T07:12:23.368Z,42.60
2019-04-29T07:13:24.634Z,44.50
2019-04-29T07:14:23.309Z,45.70
2019-04-29T07:15:23.279Z,43.60
2019-04-29T07:16:27.270Z,45.90
2019-04-29T07:17:23.220Z,44.90
2019-04-29T07:18:23.192Z,43.50
2019-04-29T07:19:26.603Z,44.10
2019-04-29T07:20:23.135Z,44.60
2019-04-29T07:21:23.108Z,43.20
2019-04-29T07:22:25.850Z,43.60
2019-04-29T07:23:23.047Z,43.30
2019-04-29T07:24:23.020Z,44.60
2019-04-29T07:25:24.587Z,41.20
2019-04-29T07:26:22.962Z,42.20
2019-04-29T07:27:22.934Z,44.50
2019-04-29T07:28:22.905Z,44.50
2019-04-29T07:29:29.633Z,43.90
2019-04-29T07:30:22.853Z,43.40
2019-04-29T07:31:22.819Z,43.30
2019-04-29T07:32:22.787Z,44.20
2019-04-29T07:33:24.514Z,44.20
2019-04-29T07:34:22.731Z,41.60
2019-04-29T07:35:22.700Z,42.40
2019-04-29T07:36:23.814Z,44.00
2019-04-29T07:37:22.645Z,42.80
2019-04-29T07:38:22.619Z,42.80
2019-04-29T07:39:26.868Z,43.00
2019-04-29T07:40:22.560Z,42.70
2019-04-29T07:41:22.529Z,42.00
2019-04-29T07:42:25.018Z,43.20
2019-04-29T07:43:22.470Z,41.60
2019-04-29T07:44:22.442Z,40.00
2019-04-29T07:45:23.774Z,41.60
2019-04-29T07:46:22.385Z,41.40
2019-04-29T07:47:24.992Z,40.40
2019-04-29T07:48:22.328Z,39.90
2019-04-29T07:49:22.302Z,40.90
2019-04-29T07:50:22.489Z,41.60
2019-04-29T07:51:22.240Z,42.50
2019-04-29T07:52:22.213Z,40.90
2019-04-29T07:53:34.972Z,40.60
2019-04-29T07:54:22.155Z,40.40
2019-04-29T07:55:26.088Z,40.60
2019-04-29T07:56:22.098Z,36.30
2019-04-29T07:57:22.069Z,39.70
2019-04-29T07:58:23.035Z,38.90
2019-04-29T07:59:22.011Z,38.30
2019-04-29T08:00:21.983Z,38.60
2019-04-29T08:01:24.520Z,38.20
2019-04-29T08:02:21.935Z,39.00
2019-04-29T08:03:21.896Z,36.90
2019-04-29T08:04:21.868Z,37.70
2019-04-29T08:05:21.839Z,39.40
2019-04-29T08:06:21.812Z,39.60
2019-04-29T08:07:21.784Z,38.80
2019-04-29T08:08:22.825Z,37.20
2019-04-29T08:09:21.760Z,39.40
2019-04-29T08:10:23.642Z,39.70
2019-04-29T08:11:21.667Z,40.10
2019-04-29T08:12:21.637Z,40.50
2019-04-29T08:13:21.609Z,40.20
2019-04-29T08:14:21.580Z,39.10
2019-04-29T08:15:21.551Z,40.40
2019-04-29T08:16:21.524Z,39.00
2019-04-29T08:17:21.493Z,36.70
2019-04-29T08:18:21.465Z,37.50
2019-04-29T08:19:24.700Z,38.10
2019-04-29T08:20:21.407Z,35.20
2019-04-29T08:21:21.380Z,37.40
2019-04-29T08:22:22.888Z,36.60
2019-04-29T08:23:21.327Z,38.20
2019-04-29T08:24:21.291Z,37.20
2019-04-29T08:25:21.740Z,35.80
2019-04-29T08:26:21.235Z,36.10
2019-04-29T08:27:21.216Z,34.20
2019-04-29T08:28:21.190Z,34.60
2019-04-29T08:29:21.149Z,34.70
2019-04-29T08:30:21.120Z,33.80
2019-04-29T08:31:22.172Z,33.50
2019-04-29T08:32:21.064Z,33.80
2019-04-29T08:33:21.032Z,32.80
2019-04-29T08:34:23.110Z,32.90
2019-04-29T08:35:20.982Z,32.00
2019-04-29T08:36:20.947Z,31.00
2019-04-29T08:37:20.919Z,30.70
2019-04-29T08:38:20.889Z,31.80
2019-04-29T08:39:20.860Z,32.60
2019-04-29T08:40:20.830Z,32.00
2019-04-29T08:41:25.970Z,29.20
2019-04-29T08:42:20.777Z,29.90
2019-04-29T08:43:22.366Z,29.70
2019-04-29T08:44:20.731Z,30.10
2019-04-29T08:45:20.687Z,29.30
2019-04-29T08:46:20.658Z,27.80
2019-04-29T08:47:23.080Z,27.70
2019-04-29T08:48:20.609Z,27.50
2019-04-29T08:49:20.580Z,27.30
2019-04-29T08:50:20.546Z,27.50
2019-04-29T08:51:20.518Z,24.90
2019-04-29T08:52:20.486Z,25.00
2019-04-29T08:53:20.459Z,24.70
2019-04-29T08:54:21.405Z,25.20
2019-04-29T08:55:20.406Z,25.40
2019-04-29T08:56:20.371Z,24.00
2019-04-29T08:57:20.341Z,24.30
2019-04-29T08:58:20.315Z,24.80
2019-04-29T08:59:20.651Z,23.90
2019-04-29T09:00:20.256Z,22.90
2019-04-29T09:01:20.227Z,23.70
2019-04-29T09:02:33.753Z,22.60
2019-04-29T09:03:23.328Z,23.50
2019-04-29T09:04:20.153Z,23.10
2019-04-29T09:05:20.112Z,22.80
2019-04-29T09:06:20.087Z,22.40
2019-04-29T09:07:22.085Z,23.20
2019-04-29T09:08:20.076Z,23.50
2019-04-29T09:09:28.491Z,23.00
2019-04-29T09:10:19.970Z,24.40
2019-04-29T09:11:19.944Z,24.30
2019-04-29T09:12:24.231Z,23.70
2019-04-29T09:13:19.897Z,22.50
2019-04-29T09:14:19.856Z,22.30
2019-04-29T09:15:19.835Z,23.20
2019-04-29T09:16:19.812Z,23.10
2019-04-29T09:17:20.886Z,24.30
2019-04-29T09:18:19.740Z,23.30
2019-04-29T09:19:19.724Z,23.70
2019-04-29T09:20:19.694Z,23.80
2019-04-29T09:21:19.653Z,24.00
2019-04-29T09:22:19.629Z,23.70
2019-04-29T09:23:19.600Z,23.40
2019-04-29T09:24:19.573Z,23.60
2019-04-29T09:25:21.370Z,23.80
2019-04-29T09:26:19.510Z,23.60
2019-04-29T09:27:19.484Z,23.70
2019-04-29T09:28:27.212Z,22.00
2019-04-29T09:29:19.423Z,24.90
2019-04-29T09:30:19.399Z,24.40
2019-04-29T09:31:19.366Z,22.90
2019-04-29T09:32:19.338Z,23.50
2019-04-29T09:33:19.310Z,23.50
2019-04-29T09:34:19.777Z,22.20
2019-04-29T09:35:19.251Z,23.30
2019-04-29T09:36:19.229Z,21.00
2019-04-29T09:37:22.813Z,22.20
2019-04-29T09:38:19.168Z,20.60
2019-04-29T09:39:21.230Z,21.00
2019-04-29T09:40:19.109Z,21.40
2019-04-29T09:41:19.081Z,21.70
2019-04-29T09:42:19.053Z,20.60
2019-04-29T09:43:21.341Z,20.50
2019-04-29T09:44:18.997Z,21.80
2019-04-29T09:45:22.072Z,21.80
2019-04-29T09:46:18.948Z,22.30
2019-04-29T09:47:18.910Z,20.70
2019-04-29T09:48:18.883Z,21.10
2019-04-29T09:49:19.071Z,20.50
2019-04-29T09:51:01.419Z,20.90
2019-04-29T09:52:01.186Z,20.30
2019-04-29T09:53:01.172Z,21.60
2019-04-29T09:54:01.132Z,20.80
2019-04-29T09:55:03.970Z,20.70
2019-04-29T09:56:01.073Z,20.30
2019-04-29T09:57:01.047Z,20.40
2019-04-29T09:58:01.024Z,20.80
2019-04-29T09:59:00.989Z,20.70
2019-04-29T10:00:05.434Z,21.30
2019-04-29T10:01:00.934Z,21.20
2019-04-29T10:02:00.906Z,21.90
2019-04-29T10:03:02.797Z,22.20
2019-04-29T10:04:00.860Z,21.50
2019-04-29T10:05:00.972Z,21.60
2019-04-29T10:06:00.791Z,21.50
2019-04-29T10:07:00.766Z,22.00
2019-04-29T10:08:00.738Z,21.40
2019-04-29T10:09:00.716Z,21.90
2019-04-29T10:10:02.504Z,22.20
2019-04-29T11:49:12.879Z,26.40
2019-04-29T11:50:13.655Z,26.70
2019-04-29T11:51:12.781Z,26.80
2019-04-29T11:52:15.370Z,25.30
2019-04-29T11:53:12.739Z,23.90
2019-04-29T11:54:17.577Z,25.00
2019-04-29T11:55:13.949Z,26.60
2019-04-29T11:56:12.445Z,25.50
2019-04-29T11:57:12.420Z,24.60
2019-04-29T11:58:12.395Z,24.80
2019-04-29T12:01:19.754Z,24.50
2019-04-29T12:37:39.382Z,26.10
2019-04-29T12:39:42.219Z,24.70
2019-04-29T12:40:21.441Z,23.40
2019-04-29T12:41:25.473Z,24.00
2019-04-29T12:42:21.395Z,24.70
2019-04-29T12:43:21.372Z,24.70
2019-04-29T12:44:34.411Z,25.60
2019-04-29T12:45:21.547Z,25.70
2019-04-29T12:46:21.305Z,25.10
2019-04-29T12:47:26.806Z,25.90
2019-04-29T12:57:32.580Z,24.20
2019-04-29T12:58:32.355Z,25.00
2019-04-29T12:59:35.598Z,25.60
2019-04-29T13:00:46.331Z,25.40
2019-04-29T13:01:50.179Z,26.00
2019-04-29T13:02:32.272Z,23.60
2019-04-29T13:03:39.472Z,24.60
2019-04-29T13:04:32.234Z,26.40
2019-04-29T13:05:32.208Z,24.60
2019-04-29T13:06:39.086Z,26.40
2019-04-29T13:07:32.166Z,26.10
2019-04-29T13:08:32.144Z,22.50
2019-04-29T13:09:34.790Z,24.60
2019-04-29T13:10:32.103Z,24.60
2019-04-29T13:11:45.359Z,24.70
2019-04-29T13:12:32.060Z,25.60
2019-04-29T13:13:32.041Z,25.90
2019-04-29T13:14:33.140Z,24.90
2019-04-29T13:16:57.080Z,23.90
2019-04-29T13:18:40.581Z,23.80
2019-04-29T13:19:39.344Z,24.80
2019-04-29T13:20:41.614Z,24.80
2019-04-29T13:21:39.590Z,23.60
2019-04-29T13:22:39.082Z,22.70
2019-04-29T13:23:53.716Z,22.00
2019-04-29T13:24:42.655Z,23.00
2019-04-29T13:25:39.013Z,20.60
2019-04-29T13:26:42.574Z,22.60
2019-04-29T13:28:29.887Z,23.10
2019-04-29T13:29:27.214Z,22.50
2019-04-29T13:30:21.330Z,22.80
2019-04-29T13:31:37.005Z,22.50
2019-04-29T13:32:25.454Z,22.80
2019-04-29T13:34:22.747Z,22.90
2019-04-29T13:35:48.392Z,23.30
2019-04-29T13:36:57.452Z,23.30
2019-04-29T13:37:46.209Z,22.70
2019-04-29T13:38:46.188Z,21.70
2019-04-29T13:39:45.957Z,23.40
2019-04-29T13:40:46.144Z,21.40
2019-04-29T13:43:10.913Z,23.00
2019-04-29T13:44:10.893Z,23.80
2019-04-29T13:45:14.708Z,23.00
2019-04-29T13:46:53.997Z,24.90
2019-04-29T13:47:53.031Z,24.40
2019-04-29T13:48:55.897Z,24.00
2019-04-29T13:49:53.190Z,24.40
2019-04-29T13:50:52.973Z,24.60
2019-04-29T13:51:52.948Z,23.80
2019-04-29T13:52:52.930Z,23.30
2019-04-29T13:53:55.406Z,23.70
2019-04-29T13:54:52.989Z,23.60
2019-04-29T13:56:10.364Z,22.50
2019-04-29T13:56:56.952Z,22.80
2019-04-29T13:57:54.881Z,21.20
2019-04-29T13:58:52.812Z,23.30
2019-04-29T13:59:52.796Z,22.70
2019-04-29T14:00:55.645Z,21.90
2019-04-29T14:02:01.369Z,22.10
2019-04-29T14:02:59.201Z,22.70
2019-04-29T14:03:52.915Z,21.90
2019-04-29T14:04:55.889Z,21.90
2019-04-29T14:06:03.581Z,21.30
2019-04-29T14:06:57.011Z,20.90
2019-04-29T14:07:54.208Z,20.50
2019-04-29T14:08:54.236Z,22.40
2019-04-29T14:09:52.595Z,21.40
2019-04-29T14:10:52.847Z,21.50
2019-04-29T14:12:01.345Z,19.20
2019-04-29T14:13:05.129Z,21.00
2019-04-29T14:13:52.517Z,21.10
2019-04-29T14:14:53.952Z,20.70
2019-04-29T14:15:52.687Z,21.30
2019-04-29T14:17:11.575Z,19.20
2019-04-29T14:17:52.436Z,20.10
2019-04-29T14:18:52.418Z,20.30
2019-04-29T14:19:52.398Z,19.60
2019-04-29T14:20:53.148Z,18.70
2019-04-29T14:21:52.560Z,16.70
2019-04-29T14:22:52.541Z,15.80
2019-04-29T14:23:52.321Z,15.20
2019-04-29T14:24:52.301Z,14.90
2019-04-29T14:25:52.277Z,13.10
2019-04-29T14:26:52.279Z,14.50
2019-04-29T14:29:17.235Z,14.90
2019-04-29T14:30:17.010Z,13.70
2019-04-29T14:31:18.626Z,14.20
2019-04-29T14:32:18.235Z,13.90
2019-04-29T14:33:19.224Z,14.10
2019-04-29T14:34:20.227Z,14.70
2019-04-29T14:35:16.911Z,14.30
2019-04-29T14:36:20.023Z,14.70
2019-04-29T14:37:23.533Z,14.30
2019-04-29T14:38:59.449Z,13.90
2019-04-29T14:40:02.828Z,13.30
2019-04-29T14:40:59.410Z,13.70
2019-04-29T14:41:59.186Z,13.30
2019-04-29T14:43:02.989Z,14.40
2019-04-29T14:44:41.853Z,14.80
2019-04-29T14:45:41.522Z,14.80
2019-04-29T14:46:41.703Z,13.60
2019-04-29T14:47:41.486Z,13.90
2019-04-29T14:48:42.877Z,13.40
2019-04-29T14:49:41.477Z,14.00
2019-04-29T14:50:41.427Z,14.10
2019-04-29T14:51:41.602Z,13.70
2019-04-29T14:52:44.765Z,13.10
2019-04-29T14:53:55.275Z,13.10
2019-04-29T14:54:43.203Z,13.50
2019-04-29T14:55:41.336Z,12.80
2019-04-29T14:56:41.302Z,13.10
2019-04-29T14:57:41.293Z,13.20
2019-04-29T14:58:41.326Z,13.20
2019-04-29T16:57:41.013Z,8.90
2019-04-29T16:58:40.782Z,8.90
2019-04-29T16:59:40.756Z,8.70
2019-04-29T19:23:24.942Z,4.70
2019-04-29T19:24:23.140Z,4.90
2019-04-29T19:25:23.100Z,5.10
2019-04-29T19:26:25.830Z,4.00
2019-04-29T19:27:23.051Z,4.40
2019-04-29T19:28:29.797Z,4.50
2019-04-29T19:29:22.990Z,4.20
2019-04-29T19:30:27.048Z,4.60
2019-04-29T19:31:22.927Z,4.30
2019-04-29T19:32:24.608Z,4.70
2019-04-29T19:33:22.873Z,4.50
2019-04-29T19:34:22.843Z,4.50
2019-04-29T19:35:22.965Z,4.30
2019-04-29T19:36:22.787Z,4.30
2019-04-29T19:37:22.758Z,4.40
2019-04-29T19:38:22.729Z,4.70
2019-04-29T19:48:34.806Z,4.20
2019-04-29T20:01:37.358Z,4.20
2019-04-29T20:02:35.946Z,4.20
2019-04-29T20:03:37.690Z,4.20
2019-04-29T20:04:34.528Z,4.10
2019-04-29T20:05:39.525Z,4.30
2019-04-29T20:06:36.897Z,4.30
2019-04-29T20:07:41.222Z,4.10
2019-04-29T20:08:52.753Z,4.00
2019-04-29T20:09:37.279Z,4.20
2019-04-29T20:10:44.324Z,4.30
2019-04-29T20:11:34.878Z,4.30
2019-04-29T20:12:36.225Z,4.60
2019-04-29T20:13:36.457Z,4.80
2019-04-29T20:14:36.594Z,4.20